sensor_id;sensor_type;location;lat;lon;timestamp;P1;durP1;ratioP1;P2;durP2;ratioP2
71176;SDS011;58877;51.992;4.504;2023-02-03T00:01:34;6.29;;;4.54;;
71176;SDS011;58877;51.992;4.504;2023-02-03T00:04:00;7.01;;;5.06;;
71176;SDS011;58877;51.992;4.504;2023-02-03T00:06:25;6.27;;;4.59;;
71176;SDS011;58877;51.992;4.504;2023-02-03T00:08:52;7.14;;;4.98;;
71176;SDS011;58877;51.992;4.504;2023-02-03T00:11:21;5.98;;;4.21;;
71176;SDS011;58877;51.992;4.504;2023-02-03T00:13:47;6.10;;;4.46;;
71176;SDS011;58877;51.992;4.504;2023-02-03T00:16:12;6.49;;;4.68;;
71176;SDS011;58877;51.992;4.504;2023-02-03T00:18:38;6.50;;;4.71;;
71176;SDS011;58877;51.992;4.504;2023-02-03T00:21:04;6.60;;;4.72;;
71176;SDS011;58877;51.992;4.504;2023-02-03T00:23:31;5.90;;;4.27;;
71176;SDS011;58877;51.992;4.504;2023-02-03T00:25:57;6.02;;;4.35;;
71176;SDS011;58877;51.992;4.504;2023-02-03T00:28:30;7.85;;;5.74;;
71176;SDS011;58877;51.992;4.504;2023-02-03T00:30:56;6.23;;;4.75;;
71176;SDS011;58877;51.992;4.504;2023-02-03T00:33:21;6.20;;;4.70;;
71176;SDS011;58877;51.992;4.504;2023-02-03T00:35:48;5.00;;;3.82;;
71176;SDS011;58877;51.992;4.504;2023-02-03T00:38:14;5.40;;;4.14;;
71176;SDS011;58877;51.992;4.504;2023-02-03T00:40:39;6.45;;;4.82;;
71176;SDS011;58877;51.992;4.504;2023-02-03T00:43:05;5.82;;;4.22;;
71176;SDS011;58877;51.992;4.504;2023-02-03T00:45:31;6.36;;;4.69;;
71176;SDS011;58877;51.992;4.504;2023-02-03T00:47:56;6.45;;;4.57;;
71176;SDS011;58877;51.992;4.504;2023-02-03T00:50:23;7.34;;;4.99;;
71176;SDS011;58877;51.992;4.504;2023-02-03T00:52:48;7.15;;;4.80;;
71176;SDS011;58877;51.992;4.504;2023-02-03T00:55:14;6.39;;;4.29;;
71176;SDS011;58877;51.992;4.504;2023-02-03T00:57:43;6.92;;;4.63;;
71176;SDS011;58877;51.992;4.504;2023-02-03T01:00:09;6.24;;;4.26;;
71176;SDS011;58877;51.992;4.504;2023-02-03T01:02:38;6.29;;;4.28;;
71176;SDS011;58877;51.992;4.504;2023-02-03T01:05:03;7.27;;;4.93;;
71176;SDS011;58877;51.992;4.504;2023-02-03T01:07:30;6.46;;;4.42;;
71176;SDS011;58877;51.992;4.504;2023-02-03T01:09:57;6.94;;;4.76;;
71176;SDS011;58877;51.992;4.504;2023-02-03T01:12:27;6.78;;;4.59;;
71176;SDS011;58877;51.992;4.504;2023-02-03T01:14:54;7.46;;;5.01;;
71176;SDS011;58877;51.992;4.504;2023-02-03T01:17:20;7.25;;;4.88;;
71176;SDS011;58877;51.992;4.504;2023-02-03T01:19:46;6.45;;;4.49;;
71176;SDS011;58877;51.992;4.504;2023-02-03T01:22:15;6.44;;;4.53;;
71176;SDS011;58877;51.992;4.504;2023-02-03T01:24:41;6.45;;;4.40;;
71176;SDS011;58877;51.992;4.504;2023-02-03T01:27:07;6.83;;;4.67;;
71176;SDS011;58877;51.992;4.504;2023-02-03T01:29:33;6.07;;;4.10;;
71176;SDS011;58877;51.992;4.504;2023-02-03T01:32:01;6.07;;;4.14;;
71176;SDS011;58877;51.992;4.504;2023-02-03T01:34:27;6.08;;;4.22;;
71176;SDS011;58877;51.992;4.504;2023-02-03T01:36:53;5.07;;;3.56;;
71176;SDS011;58877;51.992;4.504;2023-02-03T01:39:18;5.65;;;3.95;;
71176;SDS011;58877;51.992;4.504;2023-02-03T01:41:44;4.93;;;3.44;;
71176;SDS011;58877;51.992;4.504;2023-02-03T01:50:16;5.74;;;3.91;;
71176;SDS011;58877;51.992;4.504;2023-02-03T01:52:46;5.96;;;4.08;;
71176;SDS011;58877;51.992;4.504;2023-02-03T01:55:22;6.62;;;4.40;;
71176;SDS011;58877;51.992;4.504;2023-02-03T01:57:56;5.63;;;3.72;;
71176;SDS011;58877;51.992;4.504;2023-02-03T02:00:32;5.19;;;3.43;;
71176;SDS011;58877;51.992;4.504;2023-02-03T02:02:58;5.58;;;3.74;;
71176;SDS011;58877;51.992;4.504;2023-02-03T02:05:30;5.14;;;3.49;;
71176;SDS011;58877;51.992;4.504;2023-02-03T02:07:59;5.89;;;3.95;;
71176;SDS011;58877;51.992;4.504;2023-02-03T02:10:29;7.29;;;4.81;;
71176;SDS011;58877;51.992;4.504;2023-02-03T02:12:59;6.87;;;4.56;;
71176;SDS011;58877;51.992;4.504;2023-02-03T02:26:52;5.12;;;3.55;;
71176;SDS011;58877;51.992;4.504;2023-02-03T02:29:34;5.44;;;3.77;;
71176;SDS011;58877;51.992;4.504;2023-02-03T02:32:17;5.37;;;3.81;;
71176;SDS011;58877;51.992;4.504;2023-02-03T02:35:14;5.32;;;3.77;;
71176;SDS011;58877;51.992;4.504;2023-02-03T02:37:52;4.95;;;3.47;;
71176;SDS011;58877;51.992;4.504;2023-02-03T02:40:45;4.80;;;3.34;;
71176;SDS011;58877;51.992;4.504;2023-02-03T02:43:36;5.59;;;3.86;;
71176;SDS011;58877;51.992;4.504;2023-02-03T02:46:10;5.44;;;3.72;;
71176;SDS011;58877;51.992;4.504;2023-02-03T02:51:38;4.87;;;3.35;;
71176;SDS011;58877;51.992;4.504;2023-02-03T02:54:08;5.01;;;3.54;;
71176;SDS011;58877;51.992;4.504;2023-02-03T02:56:40;6.18;;;4.28;;
71176;SDS011;58877;51.992;4.504;2023-02-03T02:59:10;5.22;;;3.63;;
71176;SDS011;58877;51.992;4.504;2023-02-03T03:01:37;4.93;;;3.48;;
71176;SDS011;58877;51.992;4.504;2023-02-03T03:04:05;5.31;;;3.62;;
71176;SDS011;58877;51.992;4.504;2023-02-03T03:06:47;5.23;;;3.57;;
71176;SDS011;58877;51.992;4.504;2023-02-03T03:09:18;4.69;;;3.30;;
71176;SDS011;58877;51.992;4.504;2023-02-03T03:11:49;4.41;;;3.08;;
71176;SDS011;58877;51.992;4.504;2023-02-03T03:14:20;5.27;;;3.60;;
71176;SDS011;58877;51.992;4.504;2023-02-03T03:16:59;4.75;;;3.27;;
71176;SDS011;58877;51.992;4.504;2023-02-03T03:19:33;4.65;;;3.15;;
71176;SDS011;58877;51.992;4.504;2023-02-03T03:22:06;4.43;;;2.99;;
71176;SDS011;58877;51.992;4.504;2023-02-03T03:24:55;5.34;;;3.58;;
71176;SDS011;58877;51.992;4.504;2023-02-03T03:27:35;5.45;;;3.67;;
71176;SDS011;58877;51.992;4.504;2023-02-03T03:30:22;6.10;;;4.07;;
71176;SDS011;58877;51.992;4.504;2023-02-03T03:32:53;5.01;;;3.42;;
71176;SDS011;58877;51.992;4.504;2023-02-03T03:35:23;6.29;;;4.17;;
71176;SDS011;58877;51.992;4.504;2023-02-03T03:38:03;5.71;;;3.81;;
71176;SDS011;58877;51.992;4.504;2023-02-03T03:40:43;5.10;;;3.43;;
71176;SDS011;58877;51.992;4.504;2023-02-03T03:43:18;5.48;;;3.62;;
71176;SDS011;58877;51.992;4.504;2023-02-03T03:51:24;5.99;;;3.98;;
71176;SDS011;58877;51.992;4.504;2023-02-03T03:54:16;5.73;;;3.84;;
71176;SDS011;58877;51.992;4.504;2023-02-03T03:59:28;5.46;;;3.65;;
71176;SDS011;58877;51.992;4.504;2023-02-03T04:01:58;5.56;;;3.69;;
71176;SDS011;58877;51.992;4.504;2023-02-03T04:04:28;6.39;;;4.13;;
71176;SDS011;58877;51.992;4.504;2023-02-03T04:06:58;6.21;;;4.00;;
71176;SDS011;58877;51.992;4.504;2023-02-03T04:09:23;6.99;;;4.51;;
71176;SDS011;58877;51.992;4.504;2023-02-03T04:11:49;6.69;;;4.25;;
71176;SDS011;58877;51.992;4.504;2023-02-03T04:14:27;6.58;;;4.20;;
71176;SDS011;58877;51.992;4.504;2023-02-03T04:16:54;7.00;;;4.57;;
71176;SDS011;58877;51.992;4.504;2023-02-03T04:19:21;5.57;;;3.62;;
71176;SDS011;58877;51.992;4.504;2023-02-03T04:21:47;4.67;;;3.00;;
71176;SDS011;58877;51.992;4.504;2023-02-03T04:24:13;5.24;;;3.42;;
71176;SDS011;58877;51.992;4.504;2023-02-03T04:26:45;5.42;;;3.56;;
71176;SDS011;58877;51.992;4.504;2023-02-03T04:29:10;4.87;;;3.22;;
71176;SDS011;58877;51.992;4.504;2023-02-03T04:31:49;5.07;;;3.27;;
71176;SDS011;58877;51.992;4.504;2023-02-03T04:34:25;5.69;;;3.65;;
71176;SDS011;58877;51.992;4.504;2023-02-03T04:36:50;5.52;;;3.55;;
71176;SDS011;58877;51.992;4.504;2023-02-03T04:39:16;5.95;;;3.81;;
71176;SDS011;58877;51.992;4.504;2023-02-03T04:41:42;4.85;;;3.19;;
71176;SDS011;58877;51.992;4.504;2023-02-03T04:44:08;4.71;;;3.10;;
71176;SDS011;58877;51.992;4.504;2023-02-03T04:46:34;5.39;;;3.52;;
71176;SDS011;58877;51.992;4.504;2023-02-03T04:49:00;6.29;;;4.08;;
71176;SDS011;58877;51.992;4.504;2023-02-03T04:51:26;6.39;;;4.10;;
71176;SDS011;58877;51.992;4.504;2023-02-03T04:53:51;6.53;;;4.21;;
71176;SDS011;58877;51.992;4.504;2023-02-03T04:56:17;5.22;;;3.39;;
71176;SDS011;58877;51.992;4.504;2023-02-03T04:58:42;6.92;;;4.43;;
71176;SDS011;58877;51.992;4.504;2023-02-03T05:01:08;6.27;;;4.01;;
71176;SDS011;58877;51.992;4.504;2023-02-03T05:03:34;5.79;;;3.65;;
71176;SDS011;58877;51.992;4.504;2023-02-03T05:06:00;6.19;;;3.93;;
71176;SDS011;58877;51.992;4.504;2023-02-03T05:08:27;5.67;;;3.58;;
71176;SDS011;58877;51.992;4.504;2023-02-03T05:10:54;5.90;;;3.70;;
71176;SDS011;58877;51.992;4.504;2023-02-03T05:13:20;6.56;;;4.05;;
71176;SDS011;58877;51.992;4.504;2023-02-03T05:15:49;5.99;;;3.81;;
71176;SDS011;58877;51.992;4.504;2023-02-03T05:18:16;6.07;;;3.88;;
71176;SDS011;58877;51.992;4.504;2023-02-03T05:20:42;6.62;;;4.17;;
71176;SDS011;58877;51.992;4.504;2023-02-03T05:23:08;6.08;;;3.78;;
71176;SDS011;58877;51.992;4.504;2023-02-03T05:25:34;5.88;;;3.69;;
71176;SDS011;58877;51.992;4.504;2023-02-03T05:27:59;6.63;;;4.14;;
71176;SDS011;58877;51.992;4.504;2023-02-03T05:30:26;7.18;;;4.43;;
71176;SDS011;58877;51.992;4.504;2023-02-03T05:32:51;7.60;;;4.80;;
71176;SDS011;58877;51.992;4.504;2023-02-03T05:35:19;7.07;;;4.46;;
71176;SDS011;58877;51.992;4.504;2023-02-03T05:37:45;7.70;;;4.77;;
71176;SDS011;58877;51.992;4.504;2023-02-03T05:40:11;6.87;;;4.23;;
71176;SDS011;58877;51.992;4.504;2023-02-03T05:42:56;6.82;;;4.31;;
71176;SDS011;58877;51.992;4.504;2023-02-03T05:45:22;6.72;;;4.27;;
71176;SDS011;58877;51.992;4.504;2023-02-03T05:47:48;7.55;;;4.74;;
71176;SDS011;58877;51.992;4.504;2023-02-03T05:50:13;6.39;;;3.96;;
71176;SDS011;58877;51.992;4.504;2023-02-03T05:52:39;6.89;;;4.30;;
71176;SDS011;58877;51.992;4.504;2023-02-03T05:55:05;7.48;;;4.73;;
71176;SDS011;58877;51.992;4.504;2023-02-03T05:57:33;6.23;;;3.92;;
71176;SDS011;58877;51.992;4.504;2023-02-03T05:59:59;7.39;;;4.59;;
71176;SDS011;58877;51.992;4.504;2023-02-03T06:02:25;6.73;;;4.15;;
71176;SDS011;58877;51.992;4.504;2023-02-03T06:04:51;5.86;;;3.56;;
71176;SDS011;58877;51.992;4.504;2023-02-03T06:07:16;6.83;;;4.13;;
71176;SDS011;58877;51.992;4.504;2023-02-03T06:09:42;5.66;;;3.56;;
71176;SDS011;58877;51.992;4.504;2023-02-03T06:12:08;6.02;;;3.83;;
71176;SDS011;58877;51.992;4.504;2023-02-03T06:14:33;6.27;;;3.92;;
71176;SDS011;58877;51.992;4.504;2023-02-03T06:16:59;7.89;;;4.90;;
71176;SDS011;58877;51.992;4.504;2023-02-03T06:19:25;8.04;;;5.06;;
71176;SDS011;58877;51.992;4.504;2023-02-03T06:21:51;6.37;;;4.07;;
71176;SDS011;58877;51.992;4.504;2023-02-03T06:24:17;6.93;;;4.39;;
71176;SDS011;58877;51.992;4.504;2023-02-03T06:26:42;6.91;;;4.39;;
71176;SDS011;58877;51.992;4.504;2023-02-03T06:29:10;6.53;;;4.16;;
71176;SDS011;58877;51.992;4.504;2023-02-03T06:31:42;6.16;;;3.90;;
71176;SDS011;58877;51.992;4.504;2023-02-03T06:34:22;6.42;;;4.07;;
71176;SDS011;58877;51.992;4.504;2023-02-03T06:36:48;7.28;;;4.66;;
71176;SDS011;58877;51.992;4.504;2023-02-03T06:39:13;6.48;;;4.11;;
71176;SDS011;58877;51.992;4.504;2023-02-03T06:41:40;7.20;;;4.66;;
71176;SDS011;58877;51.992;4.504;2023-02-03T06:44:06;6.52;;;4.24;;
71176;SDS011;58877;51.992;4.504;2023-02-03T06:46:32;7.50;;;4.81;;
71176;SDS011;58877;51.992;4.504;2023-02-03T06:48:58;7.47;;;4.77;;
71176;SDS011;58877;51.992;4.504;2023-02-03T06:51:24;6.72;;;4.35;;
71176;SDS011;58877;51.992;4.504;2023-02-03T06:53:50;6.59;;;4.26;;
71176;SDS011;58877;51.992;4.504;2023-02-03T06:56:16;8.64;;;5.44;;
71176;SDS011;58877;51.992;4.504;2023-02-03T06:58:42;7.32;;;4.68;;
71176;SDS011;58877;51.992;4.504;2023-02-03T07:01:09;7.72;;;4.91;;
71176;SDS011;58877;51.992;4.504;2023-02-03T07:03:35;8.12;;;5.16;;
71176;SDS011;58877;51.992;4.504;2023-02-03T07:06:01;7.32;;;4.64;;
71176;SDS011;58877;51.992;4.504;2023-02-03T07:08:26;7.94;;;5.07;;
71176;SDS011;58877;51.992;4.504;2023-02-03T07:10:52;7.21;;;4.61;;
71176;SDS011;58877;51.992;4.504;2023-02-03T07:13:19;7.13;;;4.49;;
71176;SDS011;58877;51.992;4.504;2023-02-03T07:15:47;5.54;;;3.57;;
71176;SDS011;58877;51.992;4.504;2023-02-03T07:18:13;7.31;;;4.59;;
71176;SDS011;58877;51.992;4.504;2023-02-03T07:20:39;8.36;;;5.19;;
71176;SDS011;58877;51.992;4.504;2023-02-03T07:23:05;7.84;;;4.86;;
71176;SDS011;58877;51.992;4.504;2023-02-03T07:25:33;7.44;;;4.58;;
71176;SDS011;58877;51.992;4.504;2023-02-03T07:27:59;8.30;;;5.17;;
71176;SDS011;58877;51.992;4.504;2023-02-03T07:30:25;9.61;;;6.03;;
71176;SDS011;58877;51.992;4.504;2023-02-03T07:32:51;8.28;;;5.27;;
71176;SDS011;58877;51.992;4.504;2023-02-03T07:35:18;7.38;;;4.67;;
71176;SDS011;58877;51.992;4.504;2023-02-03T07:37:44;6.72;;;4.23;;
71176;SDS011;58877;51.992;4.504;2023-02-03T07:40:11;7.45;;;4.68;;
71176;SDS011;58877;51.992;4.504;2023-02-03T07:42:44;9.59;;;5.94;;
71176;SDS011;58877;51.992;4.504;2023-02-03T07:45:26;7.39;;;4.59;;
71176;SDS011;58877;51.992;4.504;2023-02-03T07:48:05;8.11;;;4.91;;
71176;SDS011;58877;51.992;4.504;2023-02-03T07:50:49;7.95;;;4.83;;
71176;SDS011;58877;51.992;4.504;2023-02-03T07:53:22;7.22;;;4.45;;
71176;SDS011;58877;51.992;4.504;2023-02-03T07:55:49;6.67;;;4.21;;
71176;SDS011;58877;51.992;4.504;2023-02-03T07:58:33;6.30;;;4.01;;
71176;SDS011;58877;51.992;4.504;2023-02-03T08:00:59;6.09;;;3.87;;
71176;SDS011;58877;51.992;4.504;2023-02-03T08:03:25;7.00;;;4.39;;
71176;SDS011;58877;51.992;4.504;2023-02-03T08:05:51;6.91;;;4.39;;
71176;SDS011;58877;51.992;4.504;2023-02-03T08:08:17;5.64;;;3.66;;
71176;SDS011;58877;51.992;4.504;2023-02-03T08:10:44;6.20;;;4.06;;
71176;SDS011;58877;51.992;4.504;2023-02-03T08:13:09;6.71;;;4.41;;
71176;SDS011;58877;51.992;4.504;2023-02-03T08:15:35;6.66;;;4.28;;
71176;SDS011;58877;51.992;4.504;2023-02-03T08:18:01;6.67;;;4.35;;
71176;SDS011;58877;51.992;4.504;2023-02-03T08:20:26;5.53;;;3.53;;
71176;SDS011;58877;51.992;4.504;2023-02-03T08:22:52;6.84;;;4.31;;
71176;SDS011;58877;51.992;4.504;2023-02-03T08:25:18;8.19;;;5.15;;
71176;SDS011;58877;51.992;4.504;2023-02-03T08:27:44;6.19;;;3.93;;
71176;SDS011;58877;51.992;4.504;2023-02-03T08:30:11;5.88;;;3.85;;
71176;SDS011;58877;51.992;4.504;2023-02-03T08:32:38;6.23;;;4.05;;
71176;SDS011;58877;51.992;4.504;2023-02-03T08:35:04;5.47;;;3.58;;
71176;SDS011;58877;51.992;4.504;2023-02-03T08:37:30;5.66;;;3.73;;
71176;SDS011;58877;51.992;4.504;2023-02-03T08:39:56;6.47;;;4.30;;
71176;SDS011;58877;51.992;4.504;2023-02-03T08:42:24;7.35;;;4.82;;
71176;SDS011;58877;51.992;4.504;2023-02-03T08:44:49;6.81;;;4.34;;
71176;SDS011;58877;51.992;4.504;2023-02-03T08:47:15;7.37;;;4.62;;
71176;SDS011;58877;51.992;4.504;2023-02-03T08:49:42;6.76;;;4.28;;
71176;SDS011;58877;51.992;4.504;2023-02-03T08:52:10;7.68;;;4.88;;
71176;SDS011;58877;51.992;4.504;2023-02-03T08:54:37;6.54;;;4.19;;
71176;SDS011;58877;51.992;4.504;2023-02-03T08:57:03;7.37;;;4.68;;
71176;SDS011;58877;51.992;4.504;2023-02-03T08:59:29;8.14;;;5.02;;
71176;SDS011;58877;51.992;4.504;2023-02-03T09:01:55;7.07;;;4.40;;
71176;SDS011;58877;51.992;4.504;2023-02-03T09:04:24;8.12;;;5.08;;
71176;SDS011;58877;51.992;4.504;2023-02-03T09:06:50;6.88;;;4.30;;
71176;SDS011;58877;51.992;4.504;2023-02-03T09:09:18;7.02;;;4.42;;
71176;SDS011;58877;51.992;4.504;2023-02-03T09:11:44;6.38;;;4.06;;
71176;SDS011;58877;51.992;4.504;2023-02-03T09:14:10;7.25;;;4.66;;
71176;SDS011;58877;51.992;4.504;2023-02-03T09:16:36;6.92;;;4.47;;
71176;SDS011;58877;51.992;4.504;2023-02-03T09:19:01;7.08;;;4.52;;
71176;SDS011;58877;51.992;4.504;2023-02-03T09:21:27;6.86;;;4.39;;
71176;SDS011;58877;51.992;4.504;2023-02-03T09:23:52;8.09;;;5.10;;
71176;SDS011;58877;51.992;4.504;2023-02-03T09:26:18;7.62;;;4.75;;
71176;SDS011;58877;51.992;4.504;2023-02-03T09:28:44;7.80;;;4.82;;
71176;SDS011;58877;51.992;4.504;2023-02-03T09:31:10;7.64;;;4.71;;
71176;SDS011;58877;51.992;4.504;2023-02-03T09:33:38;8.38;;;5.19;;
71176;SDS011;58877;51.992;4.504;2023-02-03T09:36:05;8.06;;;4.98;;
71176;SDS011;58877;51.992;4.504;2023-02-03T09:38:32;8.06;;;5.04;;
71176;SDS011;58877;51.992;4.504;2023-02-03T09:41:00;8.22;;;5.16;;
71176;SDS011;58877;51.992;4.504;2023-02-03T09:43:36;8.57;;;5.37;;
71176;SDS011;58877;51.992;4.504;2023-02-03T09:46:29;8.41;;;5.25;;
71176;SDS011;58877;51.992;4.504;2023-02-03T09:51:41;8.17;;;5.06;;
71176;SDS011;58877;51.992;4.504;2023-02-03T09:54:20;8.43;;;5.12;;
71176;SDS011;58877;51.992;4.504;2023-02-03T09:57:04;8.90;;;5.43;;
71176;SDS011;58877;51.992;4.504;2023-02-03T09:59:46;7.78;;;4.80;;
71176;SDS011;58877;51.992;4.504;2023-02-03T10:02:21;7.50;;;4.66;;
71176;SDS011;58877;51.992;4.504;2023-02-03T10:15:59;8.66;;;5.38;;
71176;SDS011;58877;51.992;4.504;2023-02-03T10:18:50;6.65;;;4.22;;
71176;SDS011;58877;51.992;4.504;2023-02-03T10:21:34;6.66;;;4.26;;
71176;SDS011;58877;51.992;4.504;2023-02-03T10:24:02;6.07;;;4.00;;
71176;SDS011;58877;51.992;4.504;2023-02-03T10:26:35;6.00;;;3.87;;
71176;SDS011;58877;51.992;4.504;2023-02-03T10:29:14;6.14;;;3.96;;
71176;SDS011;58877;51.992;4.504;2023-02-03T10:31:45;5.90;;;3.79;;
71176;SDS011;58877;51.992;4.504;2023-02-03T10:34:12;7.14;;;4.58;;
71176;SDS011;58877;51.992;4.504;2023-02-03T10:39:16;5.10;;;3.41;;
71176;SDS011;58877;51.992;4.504;2023-02-03T10:41:53;4.92;;;3.28;;
71176;SDS011;58877;51.992;4.504;2023-02-03T10:44:19;5.67;;;3.77;;
71176;SDS011;58877;51.992;4.504;2023-02-03T10:46:58;5.49;;;3.62;;
71176;SDS011;58877;51.992;4.504;2023-02-03T10:49:24;5.08;;;3.36;;
71176;SDS011;58877;51.992;4.504;2023-02-03T10:51:53;4.99;;;3.27;;
71176;SDS011;58877;51.992;4.504;2023-02-03T10:54:29;5.90;;;3.87;;
71176;SDS011;58877;51.992;4.504;2023-02-03T10:57:00;6.19;;;4.04;;
71176;SDS011;58877;51.992;4.504;2023-02-03T10:59:34;5.84;;;3.77;;
71176;SDS011;58877;51.992;4.504;2023-02-03T11:02:07;6.35;;;4.10;;
71176;SDS011;58877;51.992;4.504;2023-02-03T11:04:44;5.90;;;3.91;;
71176;SDS011;58877;51.992;4.504;2023-02-03T11:07:11;5.59;;;3.67;;
71176;SDS011;58877;51.992;4.504;2023-02-03T11:09:49;4.95;;;3.28;;
71176;SDS011;58877;51.992;4.504;2023-02-03T11:12:16;4.91;;;3.22;;
71176;SDS011;58877;51.992;4.504;2023-02-03T11:14:44;5.59;;;3.65;;
71176;SDS011;58877;51.992;4.504;2023-02-03T11:17:22;6.28;;;4.14;;
71176;SDS011;58877;51.992;4.504;2023-02-03T11:19:52;6.13;;;3.98;;
71176;SDS011;58877;51.992;4.504;2023-02-03T11:25:03;4.81;;;3.31;;
71176;SDS011;58877;51.992;4.504;2023-02-03T11:27:52;5.04;;;3.36;;
71176;SDS011;58877;51.992;4.504;2023-02-03T11:32:51;5.62;;;3.91;;
71176;SDS011;58877;51.992;4.504;2023-02-03T11:37:46;4.70;;;3.26;;
71176;SDS011;58877;51.992;4.504;2023-02-03T11:42:43;4.76;;;3.36;;
71176;SDS011;58877;51.992;4.504;2023-02-03T11:45:27;4.96;;;3.44;;
71176;SDS011;58877;51.992;4.504;2023-02-03T11:50:36;4.71;;;3.47;;
71176;SDS011;58877;51.992;4.504;2023-02-03T11:53:28;5.15;;;3.79;;
71176;SDS011;58877;51.992;4.504;2023-02-03T11:58:57;5.47;;;3.81;;
71176;SDS011;58877;51.992;4.504;2023-02-03T12:02:22;5.11;;;3.59;;
71176;SDS011;58877;51.992;4.504;2023-02-03T12:13:28;4.92;;;3.42;;
71176;SDS011;58877;51.992;4.504;2023-02-03T12:18:57;4.43;;;3.17;;
71176;SDS011;58877;51.992;4.504;2023-02-03T12:21:46;4.56;;;3.30;;
71176;SDS011;58877;51.992;4.504;2023-02-03T12:29:44;4.72;;;3.40;;
71176;SDS011;58877;51.992;4.504;2023-02-03T12:35:46;4.17;;;3.02;;
71176;SDS011;58877;51.992;4.504;2023-02-03T12:38:28;4.76;;;3.51;;
71176;SDS011;58877;51.992;4.504;2023-02-03T12:41:02;4.36;;;3.18;;
71176;SDS011;58877;51.992;4.504;2023-02-03T12:43:37;4.85;;;3.55;;
71176;SDS011;58877;51.992;4.504;2023-02-03T12:49:20;4.41;;;3.17;;
71176;SDS011;58877;51.992;4.504;2023-02-03T12:51:48;3.62;;;2.70;;
71176;SDS011;58877;51.992;4.504;2023-02-03T12:57:15;4.13;;;3.30;;
71176;SDS011;58877;51.992;4.504;2023-02-03T13:02:56;3.13;;;2.55;;
71176;SDS011;58877;51.992;4.504;2023-02-03T13:05:33;3.72;;;3.08;;
71176;SDS011;58877;51.992;4.504;2023-02-03T13:11:05;4.22;;;3.42;;
71176;SDS011;58877;51.992;4.504;2023-02-03T13:13:49;3.17;;;2.59;;
71176;SDS011;58877;51.992;4.504;2023-02-03T13:16:20;3.27;;;2.68;;
71176;SDS011;58877;51.992;4.504;2023-02-03T13:18:53;3.51;;;2.86;;
71176;SDS011;58877;51.992;4.504;2023-02-03T13:21:27;3.34;;;2.70;;
71176;SDS011;58877;51.992;4.504;2023-02-03T13:23:53;3.51;;;2.86;;
71176;SDS011;58877;51.992;4.504;2023-02-03T13:40:13;3.16;;;2.68;;
71176;SDS011;58877;51.992;4.504;2023-02-03T13:43:13;3.23;;;2.77;;
71176;SDS011;58877;51.992;4.504;2023-02-03T13:45:45;3.88;;;3.18;;
71176;SDS011;58877;51.992;4.504;2023-02-03T13:48:17;3.67;;;2.88;;
71176;SDS011;58877;51.992;4.504;2023-02-03T13:50:48;4.13;;;3.22;;
71176;SDS011;58877;51.992;4.504;2023-02-03T13:53:40;4.44;;;3.53;;
71176;SDS011;58877;51.992;4.504;2023-02-03T13:56:20;3.68;;;2.94;;
71176;SDS011;58877;51.992;4.504;2023-02-03T14:04:06;3.60;;;2.96;;
71176;SDS011;58877;51.992;4.504;2023-02-03T14:11:50;3.75;;;3.00;;
71176;SDS011;58877;51.992;4.504;2023-02-03T14:17:02;4.28;;;3.45;;
71176;SDS011;58877;51.992;4.504;2023-02-03T14:21:59;4.35;;;3.52;;
71176;SDS011;58877;51.992;4.504;2023-02-03T14:24:42;4.08;;;3.28;;
71176;SDS011;58877;51.992;4.504;2023-02-03T14:27:25;3.79;;;3.04;;
71176;SDS011;58877;51.992;4.504;2023-02-03T14:30:08;3.82;;;3.01;;
71176;SDS011;58877;51.992;4.504;2023-02-03T14:35:19;3.60;;;2.99;;
71176;SDS011;58877;51.992;4.504;2023-02-03T14:37:55;3.71;;;3.17;;
71176;SDS011;58877;51.992;4.504;2023-02-03T14:51:11;3.66;;;3.02;;
71176;SDS011;58877;51.992;4.504;2023-02-03T14:59:30;4.50;;;3.72;;
71176;SDS011;58877;51.992;4.504;2023-02-03T15:02:14;4.52;;;3.69;;
71176;SDS011;58877;51.992;4.504;2023-02-03T15:04:47;4.56;;;3.66;;
71176;SDS011;58877;51.992;4.504;2023-02-03T15:07:36;4.16;;;3.34;;
71176;SDS011;58877;51.992;4.504;2023-02-03T15:10:02;5.30;;;4.16;;
71176;SDS011;58877;51.992;4.504;2023-02-03T15:12:51;4.42;;;3.55;;
71176;SDS011;58877;51.992;4.504;2023-02-03T15:15:28;4.26;;;3.44;;
71176;SDS011;58877;51.992;4.504;2023-02-03T15:17:57;4.34;;;3.46;;
71176;SDS011;58877;51.992;4.504;2023-02-03T15:20:44;4.95;;;3.86;;
71176;SDS011;58877;51.992;4.504;2023-02-03T15:23:18;5.31;;;4.02;;
71176;SDS011;58877;51.992;4.504;2023-02-03T15:25:53;5.01;;;3.81;;
71176;SDS011;58877;51.992;4.504;2023-02-03T15:28:27;4.43;;;3.41;;
71176;SDS011;58877;51.992;4.504;2023-02-03T15:33:25;5.27;;;4.07;;
71176;SDS011;58877;51.992;4.504;2023-02-03T15:36:06;4.48;;;3.57;;
71176;SDS011;58877;51.992;4.504;2023-02-03T15:38:51;4.98;;;3.96;;
71176;SDS011;58877;51.992;4.504;2023-02-03T15:46:58;5.17;;;3.99;;
71176;SDS011;58877;51.992;4.504;2023-02-03T15:49:34;6.30;;;4.91;;
71176;SDS011;58877;51.992;4.504;2023-02-03T15:52:16;5.03;;;4.05;;
71176;SDS011;58877;51.992;4.504;2023-02-03T15:54:49;4.52;;;3.63;;
71176;SDS011;58877;51.992;4.504;2023-02-03T15:57:32;5.05;;;4.01;;
71176;SDS011;58877;51.992;4.504;2023-02-03T16:00:08;5.15;;;4.05;;
71176;SDS011;58877;51.992;4.504;2023-02-03T16:02:49;4.74;;;3.81;;
71176;SDS011;58877;51.992;4.504;2023-02-03T16:05:21;4.89;;;3.91;;
71176;SDS011;58877;51.992;4.504;2023-02-03T16:07:49;4.72;;;3.82;;
71176;SDS011;58877;51.992;4.504;2023-02-03T16:13:22;4.53;;;3.86;;
71176;SDS011;58877;51.992;4.504;2023-02-03T16:18:38;4.45;;;3.64;;
71176;SDS011;58877;51.992;4.504;2023-02-03T16:21:05;4.57;;;3.79;;
71176;SDS011;58877;51.992;4.504;2023-02-03T16:23:40;5.21;;;4.26;;
71176;SDS011;58877;51.992;4.504;2023-02-03T16:31:58;4.65;;;3.79;;
71176;SDS011;58877;51.992;4.504;2023-02-03T16:34:50;5.00;;;4.09;;
71176;SDS011;58877;51.992;4.504;2023-02-03T16:37:42;5.83;;;4.67;;
71176;SDS011;58877;51.992;4.504;2023-02-03T16:40:29;5.89;;;4.65;;
71176;SDS011;58877;51.992;4.504;2023-02-03T16:43:14;4.19;;;3.37;;
71176;SDS011;58877;51.992;4.504;2023-02-03T16:46:00;4.46;;;3.63;;
71176;SDS011;58877;51.992;4.504;2023-02-03T16:48:44;4.49;;;3.75;;
71176;SDS011;58877;51.992;4.504;2023-02-03T16:51:39;4.79;;;3.89;;
71176;SDS011;58877;51.992;4.504;2023-02-03T16:54:17;5.05;;;3.96;;
71176;SDS011;58877;51.992;4.504;2023-02-03T16:56:42;6.01;;;4.63;;
71176;SDS011;58877;51.992;4.504;2023-02-03T16:59:08;5.90;;;4.49;;
71176;SDS011;58877;51.992;4.504;2023-02-03T17:01:37;6.44;;;5.00;;
71176;SDS011;58877;51.992;4.504;2023-02-03T17:04:07;5.53;;;4.24;;
71176;SDS011;58877;51.992;4.504;2023-02-03T17:06:38;5.53;;;4.14;;
71176;SDS011;58877;51.992;4.504;2023-02-03T17:09:17;5.79;;;4.42;;
71176;SDS011;58877;51.992;4.504;2023-02-03T17:11:49;7.15;;;5.59;;
71176;SDS011;58877;51.992;4.504;2023-02-03T17:14:15;5.55;;;4.43;;
71176;SDS011;58877;51.992;4.504;2023-02-03T17:16:44;5.64;;;4.34;;
71176;SDS011;58877;51.992;4.504;2023-02-03T17:19:13;6.55;;;4.94;;
71176;SDS011;58877;51.992;4.504;2023-02-03T17:21:45;5.20;;;4.08;;
71176;SDS011;58877;51.992;4.504;2023-02-03T17:24:12;5.13;;;4.17;;
71176;SDS011;58877;51.992;4.504;2023-02-03T17:26:44;6.32;;;5.13;;
71176;SDS011;58877;51.992;4.504;2023-02-03T17:29:23;5.40;;;4.52;;
71176;SDS011;58877;51.992;4.504;2023-02-03T17:31:48;5.98;;;4.95;;
71176;SDS011;58877;51.992;4.504;2023-02-03T17:34:14;6.30;;;5.06;;
71176;SDS011;58877;51.992;4.504;2023-02-03T17:36:43;5.46;;;4.41;;
71176;SDS011;58877;51.992;4.504;2023-02-03T17:39:09;5.82;;;4.69;;
71176;SDS011;58877;51.992;4.504;2023-02-03T17:41:34;6.57;;;5.30;;
71176;SDS011;58877;51.992;4.504;2023-02-03T17:44:00;5.65;;;4.64;;
71176;SDS011;58877;51.992;4.504;2023-02-03T17:46:47;6.20;;;5.11;;
71176;SDS011;58877;51.992;4.504;2023-02-03T17:49:12;6.15;;;4.92;;
71176;SDS011;58877;51.992;4.504;2023-02-03T17:51:46;6.92;;;5.47;;
71176;SDS011;58877;51.992;4.504;2023-02-03T17:54:12;6.35;;;5.04;;